sensor_id;sensor_type;location;lat;lon;timestamp;temperature;humidity
13610;DHT22;6876;50.788;4.940;2023-05-14T00:00:21;14.60;99.90
13610;DHT22;6876;50.788;4.940;2023-05-14T00:03:08;14.60;99.90
13610;DHT22;6876;50.788;4.940;2023-05-14T00:05:57;14.50;99.90
13610;DHT22;6876;50.788;4.940;2023-05-14T00:08:45;14.40;99.90
13610;DHT22;6876;50.788;4.940;2023-05-14T00:11:32;14.40;99.90
13610;DHT22;6876;50.788;4.940;2023-05-14T00:14:20;14.40;99.90
13610;DHT22;6876;50.788;4.940;2023-05-14T00:17:07;14.40;99.90
13610;DHT22;6876;50.788;4.940;2023-05-14T00:19:54;14.40;99.90
13610;DHT22;6876;50.788;4.940;2023-05-14T00:22:43;14.20;99.90
13610;DHT22;6876;50.788;4.940;2023-05-14T00:25:31;14.20;99.90
13610;DHT22;6876;50.788;4.940;2023-05-14T00:28:18;14.20;99.90
13610;DHT22;6876;50.788;4.940;2023-05-14T00:31:05;14.30;99.90
13610;DHT22;6876;50.788;4.940;2023-05-14T00:33:53;14.10;99.90
13610;DHT22;6876;50.788;4.940;2023-05-14T00:36:40;14.20;99.90
13610;DHT22;6876;50.788;4.940;2023-05-14T00:39:28;14.00;99.90
13610;DHT22;6876;50.788;4.940;2023-05-14T00:42:16;14.00;99.90
13610;DHT22;6876;50.788;4.940;2023-05-14T00:45:05;14.00;99.90
13610;DHT22;6876;50.788;4.940;2023-05-14T00:47:52;14.00;99.90
13610;DHT22;6876;50.788;4.940;2023-05-14T00:50:41;13.90;99.90
13610;DHT22;6876;50.788;4.940;2023-05-14T00:53:28;13.90;99.90
13610;DHT22;6876;50.788;4.940;2023-05-14T00:56:17;13.80;99.90
13610;DHT22;6876;50.788;4.940;2023-05-14T00:59:05;13.70;99.90
13610;DHT22;6876;50.788;4.940;2023-05-14T01:01:52;13.70;99.90
13610;DHT22;6876;50.788;4.940;2023-05-14T01:04:40;13.70;99.90
13610;DHT22;6876;50.788;4.940;2023-05-14T01:07:30;13.60;99.90
13610;DHT22;6876;50.788;4.940;2023-05-14T01:10:24;13.60;99.90
13610;DHT22;6876;50.788;4.940;2023-05-14T01:13:20;13.50;99.90
13610;DHT22;6876;50.788;4.940;2023-05-14T01:16:12;13.50;99.90
13610;DHT22;6876;50.788;4.940;2023-05-14T01:19:00;13.40;99.90
13610;DHT22;6876;50.788;4.940;2023-05-14T01:21:50;13.40;99.90
13610;DHT22;6876;50.788;4.940;2023-05-14T01:24:37;13.30;99.90
13610;DHT22;6876;50.788;4.940;2023-05-14T01:27:30;13.20;99.90
13610;DHT22;6876;50.788;4.940;2023-05-14T01:30:22;13.20;99.90
13610;DHT22;6876;50.788;4.940;2023-05-14T01:33:13;13.30;99.90
13610;DHT22;6876;50.788;4.940;2023-05-14T01:36:03;13.40;99.90
13610;DHT22;6876;50.788;4.940;2023-05-14T01:38:53;13.30;99.90
13610;DHT22;6876;50.788;4.940;2023-05-14T01:41:41;13.30;99.90
13610;DHT22;6876;50.788;4.940;2023-05-14T01:44:29;13.20;99.90
13610;DHT22;6876;50.788;4.940;2023-05-14T01:47:16;13.20;99.90
13610;DHT22;6876;50.788;4.940;2023-05-14T01:50:05;13.30;99.90
13610;DHT22;6876;50.788;4.940;2023-05-14T01:52:52;13.20;99.90
13610;DHT22;6876;50.788;4.940;2023-05-14T01:55:42;13.30;99.90
13610;DHT22;6876;50.788;4.940;2023-05-14T01:58:29;13.20;99.90
13610;DHT22;6876;50.788;4.940;2023-05-14T02:01:17;13.10;99.90
13610;DHT22;6876;50.788;4.940;2023-05-14T02:04:04;13.00;99.90
13610;DHT22;6876;50.788;4.940;2023-05-14T02:06:51;13.00;99.90
13610;DHT22;6876;50.788;4.940;2023-05-14T02:09:39;13.00;99.90
13610;DHT22;6876;50.788;4.940;2023-05-14T02:12:27;12.90;99.90
13610;DHT22;6876;50.788;4.940;2023-05-14T02:15:15;12.90;99.90
13610;DHT22;6876;50.788;4.940;2023-05-14T02:18:02;12.90;99.90
13610;DHT22;6876;50.788;4.940;2023-05-14T02:20:49;12.80;99.90
13610;DHT22;6876;50.788;4.940;2023-05-14T02:23:37;12.80;99.90
13610;DHT22;6876;50.788;4.940;2023-05-14T02:26:24;12.80;99.90
13610;DHT22;6876;50.788;4.940;2023-05-14T02:29:13;12.70;99.90
13610;DHT22;6876;50.788;4.940;2023-05-14T02:32:00;12.70;99.90
13610;DHT22;6876;50.788;4.940;2023-05-14T02:34:47;12.70;99.90
13610;DHT22;6876;50.788;4.940;2023-05-14T02:37:34;12.60;99.90
13610;DHT22;6876;50.788;4.940;2023-05-14T02:40:22;12.60;99.90
13610;DHT22;6876;50.788;4.940;2023-05-14T02:43:09;12.60;99.90
13610;DHT22;6876;50.788;4.940;2023-05-14T02:45:58;12.60;99.90
13610;DHT22;6876;50.788;4.940;2023-05-14T02:48:45;12.60;99.90
13610;DHT22;6876;50.788;4.940;2023-05-14T02:51:32;12.70;99.90
13610;DHT22;6876;50.788;4.940;2023-05-14T02:54:20;12.70;99.90
13610;DHT22;6876;50.788;4.940;2023-05-14T02:57:07;12.60;99.90
13610;DHT22;6876;50.788;4.940;2023-05-14T02:59:54;12.70;99.90
13610;DHT22;6876;50.788;4.940;2023-05-14T03:02:43;12.70;99.90
13610;DHT22;6876;50.788;4.940;2023-05-14T03:05:30;12.70;99.90
13610;DHT22;6876;50.788;4.940;2023-05-14T03:08:18;12.60;99.90
13610;DHT22;6876;50.788;4.940;2023-05-14T03:11:05;12.70;99.90
13610;DHT22;6876;50.788;4.940;2023-05-14T03:13:52;12.70;99.90
13610;DHT22;6876;50.788;4.940;2023-05-14T03:16:40;12.70;99.90
13610;DHT22;6876;50.788;4.940;2023-05-14T03:19:28;12.60;99.90
13610;DHT22;6876;50.788;4.940;2023-05-14T03:22:16;12.70;99.90
13610;DHT22;6876;50.788;4.940;2023-05-14T03:25:04;12.70;99.90
13610;DHT22;6876;50.788;4.940;2023-05-14T03:27:51;12.70;99.90
13610;DHT22;6876;50.788;4.940;2023-05-14T03:30:38;12.70;99.90
13610;DHT22;6876;50.788;4.940;2023-05-14T03:33:26;12.70;99.90
13610;DHT22;6876;50.788;4.940;2023-05-14T03:36:15;12.70;99.90
13610;DHT22;6876;50.788;4.940;2023-05-14T03:39:02;12.70;99.90
13610;DHT22;6876;50.788;4.940;2023-05-14T03:41:51;12.70;99.90
13610;DHT22;6876;50.788;4.940;2023-05-14T03:44:38;12.70;99.90
13610;DHT22;6876;50.788;4.940;2023-05-14T03:47:26;12.70;99.90
13610;DHT22;6876;50.788;4.940;2023-05-14T03:50:13;12.70;99.90
13610;DHT22;6876;50.788;4.940;2023-05-14T03:53:02;12.70;99.90
13610;DHT22;6876;50.788;4.940;2023-05-14T03:55:49;12.70;99.90
13610;DHT22;6876;50.788;4.940;2023-05-14T03:58:36;12.70;99.90
13610;DHT22;6876;50.788;4.940;2023-05-14T04:01:24;12.70;99.90
13610;DHT22;6876;50.788;4.940;2023-05-14T04:04:12;12.70;99.90
13610;DHT22;6876;50.788;4.940;2023-05-14T04:06:59;12.80;99.90
13610;DHT22;6876;50.788;4.940;2023-05-14T04:09:48;12.70;99.90
13610;DHT22;6876;50.788;4.940;2023-05-14T04:12:35;12.70;99.90
13610;DHT22;6876;50.788;4.940;2023-05-14T04:15:23;12.70;99.90
13610;DHT22;6876;50.788;4.940;2023-05-14T04:18:10;12.70;99.90
13610;DHT22;6876;50.788;4.940;2023-05-14T04:20:57;12.70;99.90
13610;DHT22;6876;50.788;4.940;2023-05-14T04:23:45;12.70;99.90
13610;DHT22;6876;50.788;4.940;2023-05-14T04:26:33;12.80;99.90
13610;DHT22;6876;50.788;4.940;2023-05-14T04:29:21;12.80;99.90
13610;DHT22;6876;50.788;4.940;2023-05-14T04:32:08;12.70;99.90
13610;DHT22;6876;50.788;4.940;2023-05-14T04:34:57;12.80;99.90
13610;DHT22;6876;50.788;4.940;2023-05-14T04:37:44;12.80;99.90
13610;DHT22;6876;50.788;4.940;2023-05-14T04:40:31;12.80;99.90
13610;DHT22;6876;50.788;4.940;2023-05-14T04:43:20;12.90;99.90
13610;DHT22;6876;50.788;4.940;2023-05-14T04:46:07;12.90;99.90
13610;DHT22;6876;50.788;4.940;2023-05-14T04:48:55;12.90;99.90
13610;DHT22;6876;50.788;4.940;2023-05-14T04:51:42;12.80;99.90
13610;DHT22;6876;50.788;4.940;2023-05-14T04:54:30;12.80;99.90
13610;DHT22;6876;50.788;4.940;2023-05-14T04:57:17;12.90;99.90
13610;DHT22;6876;50.788;4.940;2023-05-14T05:00:07;13.00;99.90
13610;DHT22;6876;50.788;4.940;2023-05-14T05:02:55;12.90;99.90
13610;DHT22;6876;50.788;4.940;2023-05-14T05:05:42;12.90;99.90
13610;DHT22;6876;50.788;4.940;2023-05-14T05:08:30;13.00;99.90
13610;DHT22;6876;50.788;4.940;2023-05-14T05:11:17;13.00;99.90
13610;DHT22;6876;50.788;4.940;2023-05-14T05:14:04;13.10;99.90
13610;DHT22;6876;50.788;4.940;2023-05-14T05:16:53;13.10;99.90
13610;DHT22;6876;50.788;4.940;2023-05-14T05:19:40;13.00;99.90
13610;DHT22;6876;50.788;4.940;2023-05-14T05:22:28;13.10;99.90
13610;DHT22;6876;50.788;4.940;2023-05-14T05:25:15;13.10;99.90
13610;DHT22;6876;50.788;4.940;2023-05-14T05:28:03;13.20;99.90
13610;DHT22;6876;50.788;4.940;2023-05-14T05:30:50;13.20;99.90
13610;DHT22;6876;50.788;4.940;2023-05-14T05:33:39;13.30;99.90
13610;DHT22;6876;50.788;4.940;2023-05-14T05:36:26;13.30;99.90
13610;DHT22;6876;50.788;4.940;2023-05-14T05:39:13;13.30;99.90
13610;DHT22;6876;50.788;4.940;2023-05-14T05:42:01;13.30;99.90
13610;DHT22;6876;50.788;4.940;2023-05-14T05:44:48;13.40;99.90
13610;DHT22;6876;50.788;4.940;2023-05-14T05:47:36;13.50;99.90
13610;DHT22;6876;50.788;4.940;2023-05-14T05:50:25;13.70;99.90
13610;DHT22;6876;50.788;4.940;2023-05-14T05:53:12;13.70;99.90
13610;DHT22;6876;50.788;4.940;2023-05-14T05:56:01;13.80;93.10
13610;DHT22;6876;50.788;4.940;2023-05-14T05:58:48;13.70;73.40
13610;DHT22;6876;50.788;4.940;2023-05-14T06:01:36;13.80;33.80
13610;DHT22;6876;50.788;4.940;2023-05-14T06:04:23;13.70;12.80
13610;DHT22;6876;50.788;4.940;2023-05-14T06:07:12;13.70;9.70
13610;DHT22;6876;50.788;4.940;2023-05-14T06:09:59;13.70;33.40
13610;DHT22;6876;50.788;4.940;2023-05-14T06:12:46;13.80;1.00
13610;DHT22;6876;50.788;4.940;2023-05-14T06:15:34;13.70;1.00
13610;DHT22;6876;50.788;4.940;2023-05-14T06:18:24;13.90;1.00
13610;DHT22;6876;50.788;4.940;2023-05-14T06:21:11;14.00;1.00
13610;DHT22;6876;50.788;4.940;2023-05-14T06:24:00;14.10;1.00
13610;DHT22;6876;50.788;4.940;2023-05-14T06:26:47;14.20;1.00
13610;DHT22;6876;50.788;4.940;2023-05-14T06:29:35;14.40;1.00
13610;DHT22;6876;50.788;4.940;2023-05-14T06:32:22;14.60;1.00
13610;DHT22;6876;50.788;4.940;2023-05-14T06:35:09;14.70;1.00
13610;DHT22;6876;50.788;4.940;2023-05-14T06:37:57;14.80;1.00
13610;DHT22;6876;50.788;4.940;2023-05-14T06:40:45;14.80;1.00
13610;DHT22;6876;50.788;4.940;2023-05-14T06:43:32;15.00;99.90
13610;DHT22;6876;50.788;4.940;2023-05-14T06:46:20;15.30;99.90
13610;DHT22;6876;50.788;4.940;2023-05-14T06:49:07;15.40;99.90
13610;DHT22;6876;50.788;4.940;2023-05-14T06:51:55;15.30;1.00
13610;DHT22;6876;50.788;4.940;2023-05-14T06:54:42;15.30;99.90
13610;DHT22;6876;50.788;4.940;2023-05-14T06:57:31;15.10;99.90
13610;DHT22;6876;50.788;4.940;2023-05-14T07:00:19;14.90;1.00
13610;DHT22;6876;50.788;4.940;2023-05-14T07:03:07;14.80;1.00
13610;DHT22;6876;50.788;4.940;2023-05-14T07:05:54;14.70;1.00
13610;DHT22;6876;50.788;4.940;2023-05-14T07:08:42;14.60;1.00
13610;DHT22;6876;50.788;4.940;2023-05-14T07:11:30;14.60;1.00
13610;DHT22;6876;50.788;4.940;2023-05-14T07:14:19;14.70;1.00
13610;DHT22;6876;50.788;4.940;2023-05-14T07:17:07;14.80;1.00
13610;DHT22;6876;50.788;4.940;2023-05-14T07:19:54;14.60;1.00
13610;DHT22;6876;50.788;4.940;2023-05-14T07:22:41;14.50;1.00
13610;DHT22;6876;50.788;4.940;2023-05-14T07:25:29;14.50;99.90
13610;DHT22;6876;50.788;4.940;2023-05-14T07:28:17;14.50;99.90
13610;DHT22;6876;50.788;4.940;2023-05-14T07:31:06;14.50;99.90
13610;DHT22;6876;50.788;4.940;2023-05-14T07:33:54;14.40;99.90
13610;DHT22;6876;50.788;4.940;2023-05-14T07:36:41;14.60;1.00
13610;DHT22;6876;50.788;4.940;2023-05-14T07:39:28;15.10;99.90
13610;DHT22;6876;50.788;4.940;2023-05-14T07:42:16;15.40;99.90
13610;DHT22;6876;50.788;4.940;2023-05-14T07:45:04;15.50;1.00
13610;DHT22;6876;50.788;4.940;2023-05-14T07:47:53;15.60;1.00
13610;DHT22;6876;50.788;4.940;2023-05-14T07:50:41;15.70;1.00
13610;DHT22;6876;50.788;4.940;2023-05-14T07:53:28;15.80;1.00
13610;DHT22;6876;50.788;4.940;2023-05-14T07:56:15;16.00;1.00
13610;DHT22;6876;50.788;4.940;2023-05-14T07:59:03;15.90;99.90
13610;DHT22;6876;50.788;4.940;2023-05-14T08:01:52;15.70;1.00
13610;DHT22;6876;50.788;4.940;2023-05-14T08:04:40;15.70;1.00
13610;DHT22;6876;50.788;4.940;2023-05-14T08:07:28;15.80;1.00
13610;DHT22;6876;50.788;4.940;2023-05-14T08:10:15;15.60;1.00
13610;DHT22;6876;50.788;4.940;2023-05-14T08:13:02;15.50;1.00
13610;DHT22;6876;50.788;4.940;2023-05-14T08:15:50;15.50;1.00
13610;DHT22;6876;50.788;4.940;2023-05-14T08:18:37;15.50;99.90
13610;DHT22;6876;50.788;4.940;2023-05-14T08:21:26;15.50;12.90
13610;DHT22;6876;50.788;4.940;2023-05-14T08:24:14;15.30;25.70
13610;DHT22;6876;50.788;4.940;2023-05-14T08:27:01;15.30;53.50
13610;DHT22;6876;50.788;4.940;2023-05-14T08:29:48;15.30;99.90
13610;DHT22;6876;50.788;4.940;2023-05-14T08:32:36;15.30;99.90
13610;DHT22;6876;50.788;4.940;2023-05-14T08:35:24;15.30;99.90
13610;DHT22;6876;50.788;4.940;2023-05-14T08:38:13;15.80;99.90
13610;DHT22;6876;50.788;4.940;2023-05-14T08:41:00;16.50;1.00
13610;DHT22;6876;50.788;4.940;2023-05-14T08:43:54;18.50;99.90
13610;DHT22;6876;50.788;4.940;2023-05-14T08:46:43;20.10;1.00
13610;DHT22;6876;50.788;4.940;2023-05-14T08:49:36;20.50;1.00
13610;DHT22;6876;50.788;4.940;2023-05-14T08:52:25;20.80;1.00
13610;DHT22;6876;50.788;4.940;2023-05-14T08:55:14;21.50;99.90
13610;DHT22;6876;50.788;4.940;2023-05-14T08:58:01;21.10;1.00
13610;DHT22;6876;50.788;4.940;2023-05-14T09:00:49;20.80;1.00
13610;DHT22;6876;50.788;4.940;2023-05-14T09:03:37;20.60;99.90
13610;DHT22;6876;50.788;4.940;2023-05-14T09:06:24;20.10;99.90
13610;DHT22;6876;50.788;4.940;2023-05-14T09:09:12;19.90;99.90
13610;DHT22;6876;50.788;4.940;2023-05-14T09:12:00;19.40;1.00
13610;DHT22;6876;50.788;4.940;2023-05-14T09:14:49;19.00;1.00
13610;DHT22;6876;50.788;4.940;2023-05-14T09:17:37;19.50;19.80
13610;DHT22;6876;50.788;4.940;2023-05-14T09:20:24;20.00;1.00
13610;DHT22;6876;50.788;4.940;2023-05-14T09:23:13;20.80;1.00
13610;DHT22;6876;50.788;4.940;2023-05-14T09:26:03;22.40;99.90
13610;DHT22;6876;50.788;4.940;2023-05-14T09:28:55;23.60;90.00
13610;DHT22;6876;50.788;4.940;2023-05-14T09:31:46;22.80;1.00
13610;DHT22;6876;50.788;4.940;2023-05-14T09:34:34;23.60;99.90
13610;DHT22;6876;50.788;4.940;2023-05-14T09:37:22;23.10;99.90
13610;DHT22;6876;50.788;4.940;2023-05-14T09:40:11;22.40;99.90
13610;DHT22;6876;50.788;4.940;2023-05-14T09:42:59;22.00;99.90
13610;DHT22;6876;50.788;4.940;2023-05-14T09:45:48;21.70;99.90
13610;DHT22;6876;50.788;4.940;2023-05-14T09:48:36;22.30;99.90
13610;DHT22;6876;50.788;4.940;2023-05-14T09:51:23;23.20;99.90
13610;DHT22;6876;50.788;4.940;2023-05-14T09:54:11;23.50;90.90
13610;DHT22;6876;50.788;4.940;2023-05-14T09:56:58;23.70;99.90
13610;DHT22;6876;50.788;4.940;2023-05-14T09:59:45;24.10;1.00
13610;DHT22;6876;50.788;4.940;2023-05-14T10:02:37;23.80;1.00
13610;DHT22;6876;50.788;4.940;2023-05-14T10:05:26;22.80;99.90
13610;DHT22;6876;50.788;4.940;2023-05-14T10:08:21;23.20;99.90
13610;DHT22;6876;50.788;4.940;2023-05-14T10:11:13;22.80;99.90
13610;DHT22;6876;50.788;4.940;2023-05-14T10:14:03;22.90;99.90
13610;DHT22;6876;50.788;4.940;2023-05-14T10:17:15;23.50;99.90
13610;DHT22;6876;50.788;4.940;2023-05-14T10:20:07;23.90;96.20
13610;DHT22;6876;50.788;4.940;2023-05-14T10:22:56;24.00;1.00
13610;DHT22;6876;50.788;4.940;2023-05-14T10:25:46;23.80;1.00
13610;DHT22;6876;50.788;4.940;2023-05-14T10:28:35;23.80;1.00
13610;DHT22;6876;50.788;4.940;2023-05-14T10:31:23;24.40;1.00
13610;DHT22;6876;50.788;4.940;2023-05-14T10:34:32;24.40;1.00
13610;DHT22;6876;50.788;4.940;2023-05-14T10:37:25;24.30;1.00
13610;DHT22;6876;50.788;4.940;2023-05-14T10:40:12;24.50;1.00
13610;DHT22;6876;50.788;4.940;2023-05-14T10:43:00;24.20;1.00
13610;DHT22;6876;50.788;4.940;2023-05-14T10:45:48;23.80;1.00
13610;DHT22;6876;50.788;4.940;2023-05-14T10:48:36;24.10;1.00
13610;DHT22;6876;50.788;4.940;2023-05-14T10:51:24;24.70;1.00
13610;DHT22;6876;50.788;4.940;2023-05-14T10:54:14;24.30;1.00
13610;DHT22;6876;50.788;4.940;2023-05-14T10:57:02;24.20;99.90
13610;DHT22;6876;50.788;4.940;2023-05-14T10:59:51;23.90;99.90
13610;DHT22;6876;50.788;4.940;2023-05-14T11:02:40;24.00;1.00
13610;DHT22;6876;50.788;4.940;2023-05-14T11:05:28;23.70;1.00
13610;DHT22;6876;50.788;4.940;2023-05-14T11:08:15;23.50;1.00
13610;DHT22;6876;50.788;4.940;2023-05-14T11:11:04;24.00;1.00
13610;DHT22;6876;50.788;4.940;2023-05-14T11:13:52;24.40;1.00
13610;DHT22;6876;50.788;4.940;2023-05-14T11:16:40;24.50;1.00
13610;DHT22;6876;50.788;4.940;2023-05-14T11:19:28;24.20;99.90
13610;DHT22;6876;50.788;4.940;2023-05-14T11:22:15;23.80;1.00
13610;DHT22;6876;50.788;4.940;2023-05-14T11:25:03;23.20;99.90
13610;DHT22;6876;50.788;4.940;2023-05-14T11:27:52;23.30;1.00
13610;DHT22;6876;50.788;4.940;2023-05-14T11:30:43;23.50;1.00
13610;DHT22;6876;50.788;4.940;2023-05-14T11:33:31;23.80;1.00
13610;DHT22;6876;50.788;4.940;2023-05-14T11:36:18;24.30;1.00
13610;DHT22;6876;50.788;4.940;2023-05-14T11:39:06;24.40;1.00
13610;DHT22;6876;50.788;4.940;2023-05-14T11:41:53;24.10;1.00
13610;DHT22;6876;50.788;4.940;2023-05-14T11:44:42;24.10;1.00
13610;DHT22;6876;50.788;4.940;2023-05-14T11:47:30;24.10;99.90
13610;DHT22;6876;50.788;4.940;2023-05-14T11:50:18;23.60;99.90
13610;DHT22;6876;50.788;4.940;2023-05-14T11:53:05;23.80;99.90
13610;DHT22;6876;50.788;4.940;2023-05-14T11:55:53;24.10;1.00
13610;DHT22;6876;50.788;4.940;2023-05-14T11:58:47;24.10;99.90
13610;DHT22;6876;50.788;4.940;2023-05-14T12:01:36;23.80;99.90
13610;DHT22;6876;50.788;4.940;2023-05-14T12:04:24;23.90;1.00
13610;DHT22;6876;50.788;4.940;2023-05-14T12:07:13;23.50;99.90
13610;DHT22;6876;50.788;4.940;2023-05-14T12:10:02;23.40;99.90
13610;DHT22;6876;50.788;4.940;2023-05-14T12:12:50;23.60;99.90
13610;DHT22;6876;50.788;4.940;2023-05-14T12:15:37;23.30;99.90
13610;DHT22;6876;50.788;4.940;2023-05-14T12:18:27;23.10;99.90
13610;DHT22;6876;50.788;4.940;2023-05-14T12:21:14;23.40;99.90
13610;DHT22;6876;50.788;4.940;2023-05-14T12:24:03;23.50;99.90
13610;DHT22;6876;50.788;4.940;2023-05-14T12:26:52;23.60;99.90
13610;DHT22;6876;50.788;4.940;2023-05-14T12:29:42;23.80;99.90
13610;DHT22;6876;50.788;4.940;2023-05-14T12:32:30;23.90;99.90
13610;DHT22;6876;50.788;4.940;2023-05-14T12:35:20;23.80;99.90
13610;DHT22;6876;50.788;4.940;2023-05-14T12:38:07;23.60;99.90
13610;DHT22;6876;50.788;4.940;2023-05-14T12:40:54;23.80;99.90
13610;DHT22;6876;50.788;4.940;2023-05-14T12:43:42;24.00;99.90
13610;DHT22;6876;50.788;4.940;2023-05-14T12:46:30;23.90;99.90
13610;DHT22;6876;50.788;4.940;2023-05-14T12:49:19;23.50;99.90
13610;DHT22;6876;50.788;4.940;2023-05-14T12:52:07;23.50;99.90
13610;DHT22;6876;50.788;4.940;2023-05-14T12:54:55;23.30;99.90
13610;DHT22;6876;50.788;4.940;2023-05-14T12:57:42;23.60;99.90
13610;DHT22;6876;50.788;4.940;2023-05-14T13:00:29;23.90;99.90
13610;DHT22;6876;50.788;4.940;2023-05-14T13:03:17;23.80;99.90
13610;DHT22;6876;50.788;4.940;2023-05-14T13:06:04;23.60;99.90
13610;DHT22;6876;50.788;4.940;2023-05-14T13:08:53;23.40;99.90
13610;DHT22;6876;50.788;4.940;2023-05-14T13:11:41;23.30;99.90
13610;DHT22;6876;50.788;4.940;2023-05-14T13:14:29;23.20;99.90
13610;DHT22;6876;50.788;4.940;2023-05-14T13:17:16;23.40;99.90
13610;DHT22;6876;50.788;4.940;2023-05-14T13:20:04;23.10;99.90
13610;DHT22;6876;50.788;4.940;2023-05-14T13:22:52;23.30;99.90
13610;DHT22;6876;50.788;4.940;2023-05-14T13:25:40;23.40;99.90
13610;DHT22;6876;50.788;4.940;2023-05-14T13:28:28;23.30;99.90
13610;DHT22;6876;50.788;4.940;2023-05-14T13:31:15;23.40;99.90
13610;DHT22;6876;50.788;4.940;2023-05-14T13:34:02;23.20;99.90
13610;DHT22;6876;50.788;4.940;2023-05-14T13:36:50;23.20;99.90
13610;DHT22;6876;50.788;4.940;2023-05-14T13:39:37;23.00;99.90
13610;DHT22;6876;50.788;4.940;2023-05-14T13:42:26;23.20;99.90
13610;DHT22;6876;50.788;4.940;2023-05-14T13:45:13;23.50;99.90
13610;DHT22;6876;50.788;4.940;2023-05-14T13:48:00;23.40;1.00
13610;DHT22;6876;50.788;4.940;2023-05-14T13:50:48;23.40;1.00
13610;DHT22;6876;50.788;4.940;2023-05-14T13:53:36;23.40;1.00
13610;DHT22;6876;50.788;4.940;2023-05-14T13:56:24;23.60;8.10
13610;DHT22;6876;50.788;4.940;2023-05-14T13:59:12;23.90;99.90
13610;DHT22;6876;50.788;4.940;2023-05-14T14:02:00;23.90;94.40
13610;DHT22;6876;50.788;4.940;2023-05-14T14:04:47;23.90;1.00
13610;DHT22;6876;50.788;4.940;2023-05-14T14:07:35;23.70;1.00
13610;DHT22;6876;50.788;4.940;2023-05-14T14:10:23;23.50;1.00
13610;DHT22;6876;50.788;4.940;2023-05-14T14:13:11;23.70;30.80
13610;DHT22;6876;50.788;4.940;2023-05-14T14:16:00;23.90;1.00
13610;DHT22;6876;50.788;4.940;2023-05-14T14:18:48;24.00;1.00
13610;DHT22;6876;50.788;4.940;2023-05-14T14:21:36;24.20;1.00
13610;DHT22;6876;50.788;4.940;2023-05-14T14:24:24;24.30;1.00
13610;DHT22;6876;50.788;4.940;2023-05-14T14:27:12;24.30;1.00
13610;DHT22;6876;50.788;4.940;2023-05-14T14:29:59;24.10;1.00
13610;DHT22;6876;50.788;4.940;2023-05-14T14:32:48;24.10;1.00
13610;DHT22;6876;50.788;4.940;2023-05-14T14:35:36;23.90;1.00
13610;DHT22;6876;50.788;4.940;2023-05-14T14:38:23;24.00;1.00
13610;DHT22;6876;50.788;4.940;2023-05-14T14:41:11;24.00;1.00
13610;DHT22;6876;50.788;4.940;2023-05-14T14:43:58;24.00;1.00
13610;DHT22;6876;50.788;4.940;2023-05-14T14:46:47;24.00;1.00
13610;DHT22;6876;50.788;4.940;2023-05-14T14:49:36;23.70;1.00
13610;DHT22;6876;50.788;4.940;2023-05-14T14:52:25;23.50;1.00
13610;DHT22;6876;50.788;4.940;2023-05-14T14:55:13;23.40;1.00
13610;DHT22;6876;50.788;4.940;2023-05-14T14:58:00;23.40;1.00
13610;DHT22;6876;50.788;4.940;2023-05-14T15:00:48;23.40;1.00
13610;DHT22;6876;50.788;4.940;2023-05-14T15:03:35;23.30;1.00
13610;DHT22;6876;50.788;4.940;2023-05-14T15:06:24;23.20;1.00
13610;DHT22;6876;50.788;4.940;2023-05-14T15:09:12;23.10;1.00
13610;DHT22;6876;50.788;4.940;2023-05-14T15:12:00;23.20;1.00
13610;DHT22;6876;50.788;4.940;2023-05-14T15:14:47;23.10;1.00
13610;DHT22;6876;50.788;4.940;2023-05-14T15:17:34;23.00;1.00
13610;DHT22;6876;50.788;4.940;2023-05-14T15:20:22;23.00;1.00
13610;DHT22;6876;50.788;4.940;2023-05-14T15:23:11;23.00;1.00
13610;DHT22;6876;50.788;4.940;2023-05-14T15:25:58;23.00;1.00
13610;DHT22;6876;50.788;4.940;2023-05-14T15:28:46;23.00;1.00
13610;DHT22;6876;50.788;4.940;2023-05-14T15:31:33;22.90;1.00
13610;DHT22;6876;50.788;4.940;2023-05-14T15:34:20;22.80;1.00
13610;DHT22;6876;50.788;4.940;2023-05-14T15:37:08;23.00;1.00
13610;DHT22;6876;50.788;4.940;2023-05-14T15:39:56;22.80;1.00
13610;DHT22;6876;50.788;4.940;2023-05-14T15:42:45;22.70;1.00
13610;DHT22;6876;50.788;4.940;2023-05-14T15:45:33;22.70;1.00
13610;DHT22;6876;50.788;4.940;2023-05-14T15:48:21;22.60;1.00
13610;DHT22;6876;50.788;4.940;2023-05-14T15:51:08;22.40;1.00
13610;DHT22;6876;50.788;4.940;2023-05-14T15:53:56;22.40;1.00
13610;DHT22;6876;50.788;4.940;2023-05-14T15:56:44;22.30;1.00
13610;DHT22;6876;50.788;4.940;2023-05-14T15:59:32;22.30;1.00
13610;DHT22;6876;50.788;4.940;2023-05-14T16:02:20;22.30;5.60
13610;DHT22;6876;50.788;4.940;2023-05-14T16:05:08;22.20;6.60
13610;DHT22;6876;50.788;4.940;2023-05-14T16:07:55;22.20;59.50
13610;DHT22;6876;50.788;4.940;2023-05-14T16:10:42;22.10;79.90
13610;DHT22;6876;50.788;4.940;2023-05-14T16:13:31;22.00;99.80
13610;DHT22;6876;50.788;4.940;2023-05-14T16:16:19;21.90;99.90
13610;DHT22;6876;50.788;4.940;2023-05-14T16:19:08;21.90;99.90
13610;DHT22;6876;50.788;4.940;2023-05-14T16:21:55;21.80;99.90
13610;DHT22;6876;50.788;4.940;2023-05-14T16:24:43;21.80;99.90
13610;DHT22;6876;50.788;4.940;2023-05-14T16:27:30;21.90;99.90
13610;DHT22;6876;50.788;4.940;2023-05-14T16:30:19;22.00;99.90
13610;DHT22;6876;50.788;4.940;2023-05-14T16:33:06;21.90;99.90
13610;DHT22;6876;50.788;4.940;2023-05-14T16:35:54;21.90;99.90
13610;DHT22;6876;50.788;4.940;2023-05-14T16:38:41;21.80;99.90
13610;DHT22;6876;50.788;4.940;2023-05-14T16:41:29;21.50;99.90
13610;DHT22;6876;50.788;4.940;2023-05-14T16:44:16;21.20;99.90
13610;DHT22;6876;50.788;4.940;2023-05-14T16:47:05;21.20;99.90
13610;DHT22;6876;50.788;4.940;2023-05-14T16:49:52;21.10;99.90
13610;DHT22;6876;50.788;4.940;2023-05-14T16:52:40;21.00;99.90
13610;DHT22;6876;50.788;4.940;2023-05-14T16:55:27;20.90;99.90
13610;DHT22;6876;50.788;4.940;2023-05-14T16:58:14;20.90;99.90
13610;DHT22;6876;50.788;4.940;2023-05-14T17:01:02;20.90;99.90
13610;DHT22;6876;50.788;4.940;2023-05-14T17:03:50;20.90;1.00
13610;DHT22;6876;50.788;4.940;2023-05-14T17:06:38;21.00;1.00
13610;DHT22;6876;50.788;4.940;2023-05-14T17:09:25;20.90;1.00
13610;DHT22;6876;50.788;4.940;2023-05-14T17:12:12;21.00;1.00
13610;DHT22;6876;50.788;4.940;2023-05-14T17:15:00;21.00;1.00
13610;DHT22;6876;50.788;4.940;2023-05-14T17:17:47;21.10;1.00
13610;DHT22;6876;50.788;4.940;2023-05-14T17:20:36;21.10;1.00
13610;DHT22;6876;50.788;4.940;2023-05-14T17:23:23;21.00;1.00
13610;DHT22;6876;50.788;4.940;2023-05-14T17:26:10;20.80;1.00
13610;DHT22;6876;50.788;4.940;2023-05-14T17:28:58;20.70;1.00
13610;DHT22;6876;50.788;4.940;2023-05-14T17:31:46;20.70;1.00
13610;DHT22;6876;50.788;4.940;2023-05-14T17:34:34;20.40;1.00
13610;DHT22;6876;50.788;4.940;2023-05-14T17:37:23;20.20;47.00
13610;DHT22;6876;50.788;4.940;2023-05-14T17:40:11;20.20;1.00
13610;DHT22;6876;50.788;4.940;2023-05-14T17:42:59;20.00;1.00
13610;DHT22;6876;50.788;4.940;2023-05-14T17:45:46;20.00;1.00
13610;DHT22;6876;50.788;4.940;2023-05-14T17:48:34;19.90;1.00
13610;DHT22;6876;50.788;4.940;2023-05-14T17:51:21;20.10;1.00
13610;DHT22;6876;50.788;4.940;2023-05-14T17:54:10;20.10;99.90
13610;DHT22;6876;50.788;4.940;2023-05-14T17:56:57;20.00;99.90
13610;DHT22;6876;50.788;4.940;2023-05-14T17:59:45;19.90;99.90
13610;DHT22;6876;50.788;4.940;2023-05-14T18:02:32;19.80;99.90
13610;DHT22;6876;50.788;4.940;2023-05-14T18:05:19;19.60;1.00